createdAt,value
2023-05-25T00:02:07.237Z,15.36
2023-05-25T00:04:37.162Z,15.33
2023-05-25T00:07:06.610Z,15.28
2023-05-25T00:09:36.067Z,15.27
2023-05-25T00:12:06.065Z,15.25
2023-05-25T00:14:34.904Z,15.20
2023-05-25T00:17:10.047Z,15.17
2023-05-25T00:19:42.524Z,15.12
2023-05-25T00:22:12.259Z,15.07
2023-05-25T00:24:41.380Z,15.07
2023-05-25T00:27:12.903Z,15.07
2023-05-25T00:29:41.804Z,15.02
2023-05-25T00:32:12.310Z,14.99
2023-05-25T00:34:41.716Z,14.97
2023-05-25T00:37:10.915Z,14.95
2023-05-25T00:39:39.737Z,14.97
2023-05-25T00:42:09.750Z,14.95
2023-05-25T00:44:38.552Z,14.89
2023-05-25T00:47:07.779Z,14.88
2023-05-25T00:49:38.398Z,14.87
2023-05-25T00:52:07.858Z,14.86
2023-05-25T00:54:37.741Z,14.91
2023-05-25T00:57:09.014Z,14.88
2023-05-25T00:59:41.482Z,14.87
2023-05-25T01:02:12.010Z,14.94
2023-05-25T01:04:45.305Z,14.94
2023-05-25T01:07:18.456Z,14.88
2023-05-25T01:09:47.919Z,14.95
2023-05-25T01:12:17.374Z,14.94
2023-05-25T01:14:48.282Z,14.97
2023-05-25T01:17:20.540Z,14.97
2023-05-25T01:20:09.052Z,14.95
2023-05-25T01:22:44.549Z,14.90
2023-05-25T01:25:14.806Z,14.84
2023-05-25T01:27:58.550Z,14.93
2023-05-25T01:30:28.333Z,14.91
2023-05-25T01:32:58.278Z,14.89
2023-05-25T01:35:28.582Z,14.84
2023-05-25T01:37:59.586Z,14.80
2023-05-25T01:40:29.191Z,14.77
2023-05-25T01:42:59.578Z,14.71
2023-05-25T01:45:29.177Z,14.67
2023-05-25T01:48:02.733Z,14.69
2023-05-25T01:50:35.367Z,14.64
2023-05-25T01:53:05.839Z,14.65
2023-05-25T01:55:38.728Z,14.62
2023-05-25T01:58:09.591Z,14.61
2023-05-25T02:00:41.053Z,14.58
2023-05-25T02:03:10.933Z,14.62
2023-05-25T02:05:42.935Z,14.58
2023-05-25T02:08:12.666Z,14.59
2023-05-25T02:10:41.818Z,14.53
2023-05-25T02:13:12.131Z,14.50
2023-05-25T02:15:41.752Z,14.46
2023-05-25T02:18:11.147Z,14.44
2023-05-25T02:20:40.545Z,14.41
2023-05-25T02:23:09.405Z,14.44
2023-05-25T02:25:42.761Z,14.46
2023-05-25T02:28:13.547Z,14.44
2023-05-25T02:31:22.998Z,14.35
2023-05-25T02:33:51.835Z,14.31
2023-05-25T02:36:21.778Z,14.26
2023-05-25T02:38:52.185Z,14.29
2023-05-25T02:41:21.997Z,14.34
2023-05-25T02:43:52.241Z,14.22
2023-05-25T02:46:23.016Z,14.18
2023-05-25T02:48:52.071Z,14.17
2023-05-25T02:51:21.239Z,14.22
2023-05-25T02:53:50.819Z,14.22
2023-05-25T02:56:19.914Z,14.18
2023-05-25T02:58:48.875Z,14.21
2023-05-25T03:01:25.854Z,14.21
2023-05-25T03:03:56.959Z,14.19
2023-05-25T03:06:28.525Z,14.20
2023-05-25T03:09:06.477Z,14.20
2023-05-25T03:11:36.085Z,14.18
2023-05-25T03:14:06.561Z,14.16
2023-05-25T03:16:39.242Z,14.18
2023-05-25T03:19:10.634Z,14.17
2023-05-25T03:21:40.080Z,14.21
2023-05-25T03:24:09.269Z,14.23
2023-05-25T03:26:38.456Z,14.23
2023-05-25T03:29:08.665Z,14.25
2023-05-25T03:31:39.424Z,14.18
2023-05-25T03:34:08.495Z,14.23
2023-05-25T03:36:39.637Z,14.25
2023-05-25T03:39:10.277Z,14.26
2023-05-25T03:41:39.859Z,14.30
2023-05-25T03:44:10.875Z,14.28
2023-05-25T03:46:41.688Z,14.26
2023-05-25T03:49:14.174Z,14.30
2023-05-25T03:51:43.898Z,14.31
2023-05-25T03:54:14.558Z,14.32
2023-05-25T03:56:43.831Z,14.35
2023-05-25T03:59:13.108Z,14.42
2023-05-25T04:01:44.421Z,14.49
2023-05-25T04:04:13.546Z,14.54
2023-05-25T04:06:45.918Z,14.60
2023-05-25T04:09:15.370Z,14.61
2023-05-25T04:11:46.003Z,14.73
2023-05-25T04:14:15.067Z,14.75
2023-05-25T04:16:46.876Z,14.82
2023-05-25T04:19:17.530Z,14.88
2023-05-25T04:21:46.875Z,14.97
2023-05-25T04:24:15.895Z,15.01
2023-05-25T04:26:46.356Z,15.06
2023-05-25T04:29:15.932Z,15.17
2023-05-25T04:32:06.497Z,15.25
2023-05-25T04:34:37.943Z,15.28
2023-05-25T04:37:17.349Z,15.33
2023-05-25T04:39:47.300Z,15.40
2023-05-25T04:42:17.120Z,15.47
2023-05-25T04:44:46.471Z,15.50
2023-05-25T04:47:17.266Z,15.53
2023-05-25T04:49:46.334Z,15.57
2023-05-25T04:52:15.626Z,15.70
2023-05-25T04:54:46.922Z,15.73
2023-05-25T04:57:17.807Z,15.79
2023-05-25T04:59:46.916Z,15.88
2023-05-25T05:02:17.431Z,15.97
2023-05-25T05:04:46.417Z,16.10
2023-05-25T05:07:15.586Z,16.14
2023-05-25T05:09:45.177Z,16.24
2023-05-25T05:12:14.822Z,16.32
2023-05-25T05:14:50.323Z,16.40
2023-05-25T05:17:21.141Z,16.45
2023-05-25T05:19:50.120Z,16.49
2023-05-25T05:22:19.789Z,16.56
2023-05-25T05:24:49.075Z,16.62
2023-05-25T05:27:24.437Z,16.66
2023-05-25T05:30:01.607Z,16.79
2023-05-25T05:32:33.117Z,16.86
2023-05-25T05:35:04.999Z,16.94
2023-05-25T05:37:40.949Z,17.04
2023-05-25T05:40:10.963Z,17.09
2023-05-25T05:42:42.449Z,17.12
2023-05-25T05:45:12.568Z,17.15
2023-05-25T05:47:43.273Z,17.26
2023-05-25T05:50:12.781Z,17.38
2023-05-25T05:52:43.403Z,17.46
2023-05-25T05:55:13.496Z,17.52
2023-05-25T05:57:44.196Z,17.58
2023-05-25T06:00:13.838Z,17.64
2023-05-25T06:02:47.338Z,17.70
2023-05-25T06:05:21.973Z,17.76
2023-05-25T06:07:51.855Z,17.84
2023-05-25T06:10:22.702Z,17.94
2023-05-25T06:12:52.199Z,18.03
2023-05-25T06:15:21.115Z,18.12
2023-05-25T06:17:53.602Z,18.24
2023-05-25T06:20:23.092Z,18.32
2023-05-25T06:22:52.247Z,18.41
2023-05-25T06:25:21.421Z,18.46
2023-05-25T06:27:51.035Z,18.51
2023-05-25T06:30:20.057Z,18.52
2023-05-25T06:32:49.162Z,18.60
2023-05-25T06:35:21.020Z,18.66
2023-05-25T06:37:53.350Z,18.81
2023-05-25T06:40:22.793Z,18.93
2023-05-25T06:42:52.746Z,19.05
2023-05-25T06:45:53.959Z,19.17
2023-05-25T06:48:29.390Z,19.26
2023-05-25T06:51:01.156Z,19.30
2023-05-25T06:53:34.184Z,19.41
2023-05-25T06:56:06.058Z,19.51
2023-05-25T06:58:35.551Z,19.62
2023-05-25T07:01:06.680Z,19.65
2023-05-25T07:03:36.438Z,19.72
2023-05-25T07:06:06.896Z,19.81
2023-05-25T07:08:36.384Z,19.91
2023-05-25T07:11:05.553Z,20.02
2023-05-25T07:13:37.008Z,20.03
2023-05-25T07:16:06.083Z,20.13
2023-05-25T07:18:35.168Z,20.18
2023-05-25T07:21:04.059Z,20.26
2023-05-25T07:23:34.560Z,20.32
2023-05-25T07:26:05.688Z,20.38
2023-05-25T07:28:35.390Z,20.46
2023-05-25T07:31:04.260Z,20.53
2023-05-25T07:33:33.514Z,20.56
2023-05-25T07:36:02.364Z,20.66
2023-05-25T07:38:31.588Z,20.74
2023-05-25T07:41:01.818Z,20.72
2023-05-25T07:43:31.676Z,20.77
2023-05-25T07:46:01.339Z,20.87
2023-05-25T07:48:30.512Z,20.87
2023-05-25T07:50:59.465Z,20.81
2023-05-25T07:53:28.634Z,20.86
2023-05-25T07:55:57.581Z,20.89
2023-05-25T07:58:28.245Z,20.90
2023-05-25T08:00:57.375Z,20.98
2023-05-25T08:03:39.888Z,21.03
2023-05-25T08:06:15.518Z,21.08
2023-05-25T08:08:45.090Z,21.07
2023-05-25T08:11:14.222Z,21.09
2023-05-25T08:13:44.783Z,21.14
2023-05-25T08:16:13.792Z,21.21
2023-05-25T08:18:46.663Z,21.26
2023-05-25T08:21:16.692Z,21.30
2023-05-25T08:23:46.131Z,21.34
2023-05-25T08:26:31.735Z,21.36
2023-05-25T08:29:05.993Z,21.34
2023-05-25T08:31:35.795Z,21.41
2023-05-25T08:34:05.082Z,21.45
2023-05-25T08:36:35.952Z,21.53
2023-05-25T08:39:05.851Z,21.60
2023-05-25T08:41:36.021Z,21.66
2023-05-25T08:44:08.850Z,21.75
2023-05-25T08:46:37.735Z,21.88
2023-05-25T08:49:10.208Z,21.90
2023-05-25T08:51:40.026Z,21.90
2023-05-25T08:54:10.412Z,21.84
2023-05-25T08:56:43.050Z,21.85
2023-05-25T08:59:18.721Z,21.95
2023-05-25T09:01:48.000Z,21.97
2023-05-25T09:04:19.682Z,22.05
2023-05-25T09:07:05.695Z,22.12
2023-05-25T09:09:39.650Z,22.19
2023-05-25T09:12:09.609Z,22.21
2023-05-25T09:14:45.674Z,22.32
2023-05-25T09:17:15.189Z,22.46
2023-05-25T09:19:44.521Z,22.59
2023-05-25T09:22:16.935Z,22.69
2023-05-25T09:24:46.931Z,22.76
2023-05-25T09:27:18.619Z,22.93
2023-05-25T09:29:50.489Z,23.00
2023-05-25T09:32:20.386Z,23.06
2023-05-25T09:34:49.613Z,23.06
2023-05-25T09:37:20.215Z,23.02
2023-05-25T09:39:49.636Z,23.09
2023-05-25T09:42:21.543Z,23.18
2023-05-25T09:44:52.168Z,23.25
2023-05-25T09:47:21.314Z,23.28
2023-05-25T09:49:50.687Z,23.23
2023-05-25T09:52:19.834Z,23.24
2023-05-25T09:54:49.363Z,23.28
2023-05-25T09:57:19.573Z,23.22
2023-05-25T09:59:48.857Z,23.20
2023-05-25T10:02:19.099Z,23.22
2023-05-25T10:04:48.669Z,23.31
2023-05-25T10:07:17.878Z,23.29
2023-05-25T10:09:47.251Z,23.32
2023-05-25T10:12:18.902Z,23.23
2023-05-25T10:14:51.332Z,23.26
2023-05-25T10:17:24.261Z,23.32
2023-05-25T10:19:56.350Z,23.34
2023-05-25T10:22:28.771Z,23.41
2023-05-25T10:25:00.858Z,23.36
2023-05-25T10:27:32.937Z,23.28
2023-05-25T10:30:02.974Z,23.26
2023-05-25T10:32:34.065Z,23.36
2023-05-25T10:35:04.516Z,23.39
2023-05-25T10:37:34.510Z,23.36
2023-05-25T10:40:04.395Z,23.27
2023-05-25T10:42:37.050Z,23.24
2023-05-25T10:45:07.367Z,23.29
2023-05-25T10:47:38.886Z,23.38
2023-05-25T10:50:08.888Z,23.45
2023-05-25T10:52:37.703Z,23.49
2023-05-25T10:55:07.423Z,23.52
2023-05-25T10:57:36.500Z,23.50
2023-05-25T11:00:08.724Z,23.60
2023-05-25T11:02:53.671Z,23.64
2023-05-25T11:05:34.257Z,23.56
2023-05-25T11:08:05.091Z,23.50
2023-05-25T11:10:44.939Z,23.50
2023-05-25T11:13:25.286Z,23.44
2023-05-25T11:16:20.175Z,23.51
2023-05-25T11:18:54.766Z,23.63
2023-05-25T11:21:25.529Z,23.70
2023-05-25T11:23:55.259Z,23.70
2023-05-25T11:26:25.393Z,23.76
2023-05-25T11:28:54.690Z,23.86
2023-05-25T11:31:31.950Z,23.87
2023-05-25T11:34:04.831Z,23.89
2023-05-25T11:36:35.898Z,23.90
2023-05-25T11:39:11.728Z,23.94
2023-05-25T11:41:51.473Z,23.90
2023-05-25T11:44:27.455Z,23.87
2023-05-25T11:46:58.229Z,23.89
2023-05-25T11:49:29.945Z,23.95
2023-05-25T11:51:59.498Z,23.94
2023-05-25T11:54:29.568Z,23.94
2023-05-25T11:57:00.162Z,23.99
2023-05-25T11:59:32.358Z,24.13
2023-05-25T12:02:03.308Z,24.23
2023-05-25T12:04:35.299Z,24.21
2023-05-25T12:07:05.075Z,24.21
2023-05-25T12:09:34.320Z,24.32
2023-05-25T12:12:04.899Z,24.21
2023-05-25T12:14:36.276Z,24.19
2023-05-25T12:17:07.465Z,24.17
2023-05-25T12:19:37.928Z,24.08
2023-05-25T12:22:07.660Z,24.13
2023-05-25T12:24:36.578Z,24.15
2023-05-25T12:27:06.869Z,24.14
2023-05-25T12:29:46.587Z,24.12
2023-05-25T12:32:16.222Z,24.11
2023-05-25T12:34:46.682Z,24.06
2023-05-25T12:37:20.734Z,23.99
2023-05-25T12:39:51.515Z,23.95
2023-05-25T12:42:20.940Z,23.88
2023-05-25T12:44:55.532Z,23.70
2023-05-25T12:47:25.451Z,23.62
2023-05-25T12:50:11.169Z,23.52
2023-05-25T12:52:41.042Z,23.49
2023-05-25T12:55:25.788Z,23.26
2023-05-25T12:57:55.346Z,23.16
2023-05-25T13:00:25.602Z,23.07
2023-05-25T13:02:55.095Z,22.98
2023-05-25T13:05:26.517Z,22.87
2023-05-25T13:07:56.457Z,22.79
2023-05-25T13:10:28.285Z,22.75
2023-05-25T13:12:58.677Z,22.73
2023-05-25T13:15:28.178Z,22.69
2023-05-25T13:17:58.741Z,22.60
2023-05-25T13:20:30.243Z,22.62
2023-05-25T13:22:59.844Z,22.66
2023-05-25T13:25:28.762Z,22.75
2023-05-25T13:28:00.294Z,22.83
2023-05-25T13:30:29.212Z,22.86
2023-05-25T13:32:58.363Z,22.92
2023-05-25T13:35:42.111Z,23.11
2023-05-25T13:38:11.719Z,23.36
2023-05-25T13:40:40.744Z,23.40
2023-05-25T13:43:09.837Z,23.45
2023-05-25T13:45:39.833Z,23.46
2023-05-25T13:48:09.061Z,23.50
2023-05-25T13:50:39.556Z,23.55
2023-05-25T13:53:08.507Z,23.56
2023-05-25T13:55:38.690Z,23.66
2023-05-25T13:58:07.914Z,23.81
2023-05-25T14:00:37.559Z,24.01
2023-05-25T14:03:06.555Z,24.22
2023-05-25T14:05:35.965Z,24.31
2023-05-25T14:08:06.921Z,24.61
2023-05-25T14:10:36.363Z,24.93
2023-05-25T14:13:05.166Z,25.11
2023-05-25T14:15:34.375Z,25.26
2023-05-25T14:18:03.199Z,25.39
2023-05-25T14:20:36.032Z,25.71
2023-05-25T14:23:06.416Z,25.72
2023-05-25T14:25:35.552Z,25.84
2023-05-25T14:28:04.757Z,25.97
2023-05-25T14:30:35.694Z,26.10
2023-05-25T14:33:04.663Z,26.18
2023-05-25T14:35:33.790Z,26.19
2023-05-25T14:38:02.641Z,26.30
2023-05-25T14:40:33.191Z,26.45
2023-05-25T14:43:02.181Z,26.76
2023-05-25T14:45:31.362Z,26.95
2023-05-25T14:48:15.276Z,27.15
2023-05-25T14:50:46.500Z,27.23
2023-05-25T14:53:16.013Z,27.42
2023-05-25T14:55:46.678Z,27.77
2023-05-25T14:58:15.688Z,28.04
2023-05-25T15:00:44.904Z,28.14
2023-05-25T15:03:13.951Z,28.15
2023-05-25T15:05:43.374Z,28.25
2023-05-25T15:08:12.346Z,28.40
2023-05-25T15:10:41.432Z,28.38
2023-05-25T15:13:13.304Z,28.42
2023-05-25T15:15:43.135Z,28.75
2023-05-25T15:18:12.465Z,28.75
2023-05-25T15:20:41.833Z,28.85
2023-05-25T15:23:10.864Z,28.81
2023-05-25T15:25:39.992Z,28.75
2023-05-25T15:28:08.836Z,28.38
2023-05-25T15:30:39.297Z,28.23
2023-05-25T15:33:08.247Z,27.72
2023-05-25T15:35:37.506Z,27.36
2023-05-25T15:38:06.460Z,27.01
2023-05-25T15:40:37.103Z,26.78
2023-05-25T15:43:06.032Z,26.67
2023-05-25T15:45:35.124Z,26.38
2023-05-25T15:48:09.234Z,26.57
2023-05-25T15:50:39.696Z,26.77
2023-05-25T15:53:08.877Z,26.61
2023-05-25T15:55:40.004Z,26.72
2023-05-25T15:58:09.030Z,26.64
2023-05-25T16:00:38.155Z,26.70
2023-05-25T16:03:08.666Z,26.95
2023-05-25T16:05:37.937Z,26.90
2023-05-25T16:08:06.913Z,26.92
2023-05-25T16:10:37.880Z,26.96
2023-05-25T16:13:06.666Z,27.08
2023-05-25T16:15:35.856Z,27.23
2023-05-25T16:18:05.373Z,27.17
2023-05-25T16:20:36.553Z,27.36
2023-05-25T16:23:05.517Z,27.45
2023-05-25T16:25:34.643Z,27.70
2023-05-25T16:28:03.595Z,27.82
2023-05-25T16:30:32.675Z,27.61
2023-05-25T16:33:01.972Z,27.72
2023-05-25T16:35:31.152Z,27.83
2023-05-25T16:38:01.351Z,27.73
2023-05-25T16:40:31.646Z,27.34
2023-05-25T16:43:00.891Z,26.97
2023-05-25T16:45:30.194Z,26.58
2023-05-25T16:47:59.009Z,26.20
2023-05-25T16:50:28.279Z,25.89
2023-05-25T16:52:57.254Z,25.53
2023-05-25T16:55:29.851Z,24.91
2023-05-25T16:57:58.865Z,24.56
2023-05-25T17:00:28.091Z,24.19
2023-05-25T17:02:57.258Z,23.90
2023-05-25T17:05:26.644Z,23.70
2023-05-25T17:07:55.564Z,23.39
2023-05-25T17:10:24.747Z,23.18
2023-05-25T17:12:55.310Z,22.87
2023-05-25T17:15:24.872Z,22.59
2023-05-25T17:17:53.941Z,22.43
2023-05-25T17:20:23.291Z,22.19
2023-05-25T17:22:53.085Z,21.90
2023-05-25T17:25:22.767Z,21.75
2023-05-25T17:27:51.655Z,21.60
2023-05-25T17:30:22.146Z,21.47
2023-05-25T17:32:51.571Z,21.30
2023-05-25T17:35:20.725Z,21.20
2023-05-25T17:37:49.613Z,21.03
2023-05-25T17:40:18.874Z,20.94
2023-05-25T17:42:48.011Z,20.82
2023-05-25T17:45:17.353Z,20.75
2023-05-25T17:47:47.691Z,20.55
2023-05-25T17:50:17.052Z,20.46
2023-05-25T17:52:47.879Z,20.35
2023-05-25T17:55:17.036Z,20.35
2023-05-25T17:57:46.153Z,20.25
2023-05-25T18:00:15.942Z,20.09
2023-05-25T18:02:47.663Z,20.00
2023-05-25T18:05:17.279Z,19.84
2023-05-25T18:07:46.823Z,19.73
2023-05-25T18:10:16.347Z,19.60
2023-05-25T18:12:46.288Z,19.42
2023-05-25T18:15:15.959Z,19.26
2023-05-25T18:17:45.160Z,19.15
2023-05-25T18:20:17.431Z,19.01
2023-05-25T18:22:46.613Z,18.95
2023-05-25T18:25:15.776Z,18.89
2023-05-25T18:27:44.809Z,18.87
2023-05-25T18:30:14.511Z,18.87
2023-05-25T18:32:43.685Z,18.77
2023-05-25T18:35:13.235Z,18.66
2023-05-25T18:37:44.200Z,18.43
2023-05-25T18:40:13.785Z,18.30
2023-05-25T18:42:42.897Z,18.19
2023-05-25T18:45:12.305Z,18.08
2023-05-25T18:47:41.507Z,17.94
2023-05-25T18:50:11.928Z,17.89
2023-05-25T18:52:41.396Z,17.82
2023-05-25T18:55:12.291Z,17.71
2023-05-25T18:57:41.505Z,17.67
2023-05-25T19:00:11.694Z,17.58
2023-05-25T19:02:41.143Z,17.53
2023-05-25T19:05:12.841Z,17.47
2023-05-25T19:07:58.518Z,17.42
2023-05-25T19:10:30.140Z,17.33
2023-05-25T19:12:59.343Z,17.32
2023-05-25T19:15:28.510Z,17.14
2023-05-25T19:17:58.317Z,17.06
2023-05-25T19:20:28.157Z,16.94
2023-05-25T19:22:57.448Z,16.78
2023-05-25T19:25:26.850Z,16.70
2023-05-25T19:27:58.714Z,16.64
2023-05-25T19:30:29.919Z,16.61
2023-05-25T19:32:59.711Z,16.48
2023-05-25T19:35:29.105Z,16.46
2023-05-25T19:37:59.766Z,16.36
2023-05-25T19:40:30.088Z,16.22
2023-05-25T19:43:01.448Z,16.21
2023-05-25T19:45:31.119Z,16.21
2023-05-25T19:48:01.677Z,16.17
2023-05-25T19:50:31.774Z,16.04
2023-05-25T19:53:01.202Z,16.02
2023-05-25T19:55:31.053Z,15.93
2023-05-25T19:58:01.580Z,15.84
2023-05-25T20:00:30.844Z,15.76
2023-05-25T20:03:00.758Z,15.65
2023-05-25T20:05:30.805Z,15.65
2023-05-25T20:08:01.320Z,15.59
2023-05-25T20:10:32.852Z,15.54
2023-05-25T20:13:03.756Z,15.48
2023-05-25T20:15:33.380Z,15.46
2023-05-25T20:18:03.185Z,15.45
2023-05-25T20:20:32.591Z,15.38
2023-05-25T20:23:02.068Z,15.37
2023-05-25T20:25:32.091Z,15.31
2023-05-25T20:28:01.132Z,15.29
2023-05-25T20:30:32.464Z,15.18
2023-05-25T20:33:01.657Z,15.13
2023-05-25T20:35:31.172Z,15.07
2023-05-25T20:38:00.420Z,15.10
2023-05-25T20:40:32.159Z,15.07
2023-05-25T20:43:01.810Z,15.09
2023-05-25T20:45:33.617Z,14.96
2023-05-25T20:48:05.716Z,14.80
2023-05-25T20:50:36.132Z,14.81
2023-05-25T20:53:05.269Z,14.75
2023-05-25T20:55:35.501Z,14.68
2023-05-25T20:58:04.364Z,14.55
2023-05-25T21:00:35.294Z,14.53
2023-05-25T21:03:04.985Z,14.47
2023-05-25T21:05:34.434Z,14.41
2023-05-25T21:08:04.125Z,14.44
2023-05-25T21:10:33.603Z,14.36
2023-05-25T21:13:02.440Z,14.36
2023-05-25T21:15:31.770Z,14.31
2023-05-25T21:18:03.643Z,14.30
2023-05-25T21:20:33.077Z,14.17
2023-05-25T21:23:02.652Z,14.08
2023-05-25T21:25:32.955Z,13.95
2023-05-25T21:28:01.896Z,13.98
2023-05-25T21:30:31.211Z,13.95
2023-05-25T21:33:00.485Z,13.89
2023-05-25T21:35:31.681Z,13.89
2023-05-25T21:38:00.590Z,13.84
2023-05-25T21:40:29.762Z,13.79
2023-05-25T21:42:58.712Z,13.76
2023-05-25T21:45:27.813Z,13.78
2023-05-25T21:47:56.948Z,13.70
2023-05-25T21:50:28.370Z,13.73
2023-05-25T21:52:58.830Z,13.70
2023-05-25T21:55:27.995Z,13.64
2023-05-25T21:57:56.781Z,13.65
2023-05-25T22:00:26.284Z,13.59
2023-05-25T22:02:55.302Z,13.64
2023-05-25T22:05:24.728Z,13.57
2023-05-25T22:07:55.662Z,13.48
2023-05-25T22:10:26.468Z,13.49
2023-05-25T22:12:56.313Z,13.45
2023-05-25T22:15:26.167Z,13.46
2023-05-25T22:17:56.043Z,13.45
2023-05-25T22:20:25.429Z,13.43
2023-05-25T22:22:54.551Z,13.41
2023-05-25T22:25:23.727Z,13.30
2023-05-25T22:27:53.936Z,13.29
2023-05-25T22:30:23.048Z,13.28
2023-05-25T22:32:52.048Z,13.26
2023-05-25T22:35:21.247Z,13.20
2023-05-25T22:37:50.209Z,13.19
2023-05-25T22:40:19.464Z,13.20
2023-05-25T22:42:50.286Z,13.10
2023-05-25T22:45:21.460Z,13.08
2023-05-25T22:47:50.482Z,13.10
2023-05-25T22:50:19.614Z,13.04
2023-05-25T22:52:48.649Z,13.05
2023-05-25T22:55:17.750Z,13.01
2023-05-25T22:57:46.728Z,12.95
2023-05-25T23:00:15.949Z,12.86
2023-05-25T23:02:46.411Z,12.79
2023-05-25T23:05:15.666Z,12.85
2023-05-25T23:07:45.719Z,12.78
2023-05-25T23:10:14.870Z,12.75
2023-05-25T23:12:43.726Z,12.73
2023-05-25T23:15:12.971Z,12.70
2023-05-25T23:17:41.821Z,12.62
2023-05-25T23:20:13.225Z,12.55
2023-05-25T23:22:43.235Z,12.55
2023-05-25T23:25:12.451Z,12.50
2023-05-25T23:27:41.838Z,12.44
2023-05-25T23:30:11.328Z,12.44
2023-05-25T23:32:40.291Z,12.43
2023-05-25T23:35:10.509Z,12.46
2023-05-25T23:37:41.303Z,12.42
2023-05-25T23:40:11.107Z,12.39
2023-05-25T23:42:40.611Z,12.41
2023-05-25T23:45:10.868Z,12.40
2023-05-25T23:47:39.822Z,12.29
2023-05-25T23:50:09.200Z,12.25
2023-05-25T23:52:38.144Z,12.25
2023-05-25T23:55:09.528Z,12.23
2023-05-25T23:57:38.648Z,12.24
